createdAt,value
2023-11-30T00:00:29.252Z,2.27
2023-11-30T00:02:55.768Z,2.26
2023-11-30T00:05:23.620Z,2.28
2023-11-30T00:07:50.366Z,2.30
2023-11-30T00:10:17.024Z,2.29
2023-11-30T00:12:43.456Z,2.32
2023-11-30T00:15:10.285Z,2.33
2023-11-30T00:17:39.256Z,2.31
2023-11-30T00:20:09.513Z,2.29
2023-11-30T00:22:35.890Z,2.27
2023-11-30T00:25:02.594Z,2.26
2023-11-30T00:27:29.010Z,2.26
2023-11-30T00:29:55.646Z,2.25
2023-11-30T00:32:22.170Z,2.22
2023-11-30T00:34:48.550Z,2.21
2023-11-30T00:37:14.997Z,2.21
2023-11-30T00:39:41.468Z,2.22
2023-11-30T00:42:08.146Z,2.20
2023-11-30T00:44:34.669Z,2.18
2023-11-30T00:47:01.096Z,2.18
2023-11-30T00:49:30.003Z,2.17
2023-11-30T00:51:56.597Z,2.18
2023-11-30T00:54:23.073Z,2.17
2023-11-30T00:56:49.582Z,2.18
2023-11-30T00:59:18.227Z,2.15
2023-11-30T01:01:47.159Z,2.17
2023-11-30T01:04:13.620Z,2.18
2023-11-30T01:06:40.339Z,2.15
2023-11-30T01:09:06.874Z,2.16
2023-11-30T01:11:33.277Z,2.17
2023-11-30T01:13:59.722Z,2.19
2023-11-30T01:16:26.137Z,2.18
2023-11-30T01:18:52.635Z,2.20
2023-11-30T01:21:19.225Z,2.21
2023-11-30T01:23:45.632Z,2.19
2023-11-30T01:26:12.009Z,2.21
2023-11-30T01:28:38.908Z,2.19
2023-11-30T01:31:05.665Z,2.19
2023-11-30T01:33:32.097Z,2.19
2023-11-30T01:35:58.535Z,2.17
2023-11-30T01:38:25.086Z,2.16
2023-11-30T01:40:53.907Z,2.16
2023-11-30T01:43:22.824Z,2.19
2023-11-30T01:46:02.004Z,2.18
2023-11-30T01:48:30.595Z,2.17
2023-11-30T01:50:57.306Z,2.18
2023-11-30T01:53:23.863Z,2.17
2023-11-30T01:55:52.621Z,2.16
2023-11-30T01:58:19.346Z,2.17
2023-11-30T02:00:45.924Z,2.13
2023-11-30T02:03:12.936Z,2.05
2023-11-30T02:05:39.620Z,2.01
2023-11-30T02:08:06.080Z,1.92
2023-11-30T02:10:32.550Z,1.81
2023-11-30T02:12:59.157Z,1.78
2023-11-30T02:15:25.660Z,1.72
2023-11-30T02:17:52.243Z,1.67
2023-11-30T02:20:19.400Z,1.65
2023-11-30T02:22:48.374Z,1.67
2023-11-30T02:25:14.845Z,1.64
2023-11-30T02:27:41.280Z,1.63
2023-11-30T02:30:08.447Z,1.65
2023-11-30T02:32:34.916Z,1.65
2023-11-30T02:35:04.147Z,1.65
2023-11-30T02:37:30.576Z,1.67
2023-11-30T02:39:59.506Z,1.65
2023-11-30T02:42:29.088Z,1.65
2023-11-30T02:45:02.968Z,1.68
2023-11-30T02:47:29.453Z,1.69
2023-11-30T02:49:58.188Z,1.71
2023-11-30T02:52:24.571Z,1.70
2023-11-30T02:54:51.006Z,1.70
2023-11-30T02:57:17.546Z,1.70
2023-11-30T02:59:47.077Z,1.66
2023-11-30T03:02:15.423Z,1.64
2023-11-30T03:04:42.103Z,1.61
2023-11-30T03:07:08.497Z,1.55
2023-11-30T03:09:35.192Z,1.54
2023-11-30T03:12:04.171Z,1.54
2023-11-30T03:14:30.569Z,1.56
2023-11-30T03:16:58.079Z,1.57
2023-11-30T03:19:24.980Z,1.56
2023-11-30T03:21:51.786Z,1.61
2023-11-30T03:24:19.929Z,1.61
2023-11-30T03:26:46.541Z,1.66
2023-11-30T03:29:12.958Z,1.66
2023-11-30T03:31:40.860Z,1.69
2023-11-30T03:34:07.758Z,1.73
2023-11-30T03:36:39.132Z,1.76
2023-11-30T03:39:06.124Z,1.75
2023-11-30T03:41:32.732Z,1.77
2023-11-30T03:43:59.334Z,1.78
2023-11-30T03:46:26.014Z,1.80
2023-11-30T03:48:53.683Z,1.83
2023-11-30T03:51:20.448Z,1.80
2023-11-30T03:53:46.897Z,1.80
2023-11-30T03:56:15.654Z,1.80
2023-11-30T03:58:42.038Z,1.78
2023-11-30T04:01:08.667Z,1.76
2023-11-30T04:03:39.791Z,1.73
2023-11-30T04:06:08.716Z,1.69
2023-11-30T04:08:37.258Z,1.70
2023-11-30T04:11:03.821Z,1.67
2023-11-30T04:13:35.134Z,1.66
2023-11-30T04:16:06.224Z,1.67
2023-11-30T04:18:34.833Z,1.68
2023-11-30T04:21:01.296Z,1.69
2023-11-30T04:23:27.778Z,1.71
2023-11-30T04:25:54.211Z,1.73
2023-11-30T04:28:20.605Z,1.73
2023-11-30T04:30:53.622Z,1.72
2023-11-30T04:33:20.083Z,1.74
2023-11-30T04:35:46.853Z,1.73
2023-11-30T04:38:13.306Z,1.73
2023-11-30T04:40:42.034Z,1.73
2023-11-30T04:43:08.412Z,1.73
2023-11-30T04:45:34.891Z,1.73
2023-11-30T04:48:04.037Z,1.71
2023-11-30T04:50:30.641Z,1.69
2023-11-30T04:52:57.116Z,1.67
2023-11-30T04:55:23.594Z,1.59
2023-11-30T04:57:54.632Z,1.56
2023-11-30T05:00:21.154Z,1.48
2023-11-30T05:02:56.931Z,1.44
2023-11-30T05:05:23.731Z,1.38
2023-11-30T05:07:53.273Z,1.34
2023-11-30T05:10:19.704Z,1.27
2023-11-30T05:12:47.121Z,1.25
2023-11-30T05:15:13.631Z,1.20
2023-11-30T05:17:40.070Z,1.12
2023-11-30T05:20:07.379Z,1.06
2023-11-30T05:22:38.361Z,1.00
2023-11-30T05:25:07.575Z,0.93
2023-11-30T05:27:34.065Z,0.87
2023-11-30T05:30:04.519Z,0.77
2023-11-30T05:32:33.558Z,0.75
2023-11-30T05:34:59.966Z,0.61
2023-11-30T05:37:26.497Z,0.53
2023-11-30T05:39:55.301Z,0.42
2023-11-30T05:42:21.894Z,0.36
2023-11-30T05:44:48.420Z,0.22
2023-11-30T05:47:17.707Z,0.14
2023-11-30T05:49:44.436Z,0.03
2023-11-30T05:52:10.813Z,-0.06
2023-11-30T05:54:37.473Z,-0.15
2023-11-30T05:57:04.247Z,-0.20
2023-11-30T05:59:30.679Z,-0.28
2023-11-30T06:02:00.889Z,-0.35
2023-11-30T06:04:34.171Z,-0.44
2023-11-30T06:07:01.198Z,-0.50
2023-11-30T06:09:27.690Z,-0.57
2023-11-30T06:11:56.314Z,-0.59
2023-11-30T06:14:27.594Z,-0.67
2023-11-30T06:16:54.035Z,-0.72
2023-11-30T06:19:22.782Z,-0.79
2023-11-30T06:21:49.155Z,-0.78
2023-11-30T06:24:15.675Z,-0.86
2023-11-30T06:26:43.046Z,-0.91
2023-11-30T06:29:12.160Z,-0.91
2023-11-30T06:31:40.844Z,-0.94
2023-11-30T06:34:07.361Z,-0.96
2023-11-30T06:36:36.148Z,-0.95
2023-11-30T06:39:04.309Z,-1.00
2023-11-30T06:41:30.722Z,-1.01
2023-11-30T06:43:57.208Z,-0.92
2023-11-30T06:46:23.959Z,-0.92
2023-11-30T06:48:53.558Z,-0.82
2023-11-30T06:51:20.241Z,-0.76
2023-11-30T06:53:46.702Z,-0.69
2023-11-30T06:56:16.126Z,-0.60
2023-11-30T06:58:43.715Z,-0.56
2023-11-30T07:01:12.844Z,-0.51
2023-11-30T07:03:42.828Z,-0.39
2023-11-30T07:06:10.493Z,-0.34
2023-11-30T07:08:37.350Z,-0.30
2023-11-30T07:11:08.268Z,-0.10
2023-11-30T07:13:34.719Z,0.01
2023-11-30T07:16:01.242Z,0.12
2023-11-30T07:18:27.833Z,0.20
2023-11-30T07:20:54.233Z,0.21
2023-11-30T07:23:20.625Z,0.36
2023-11-30T07:25:47.481Z,0.33
2023-11-30T07:28:13.958Z,0.31
2023-11-30T07:30:42.142Z,0.40
2023-11-30T07:33:09.599Z,0.43
2023-11-30T07:35:39.636Z,0.44
2023-11-30T07:38:06.568Z,0.48
2023-11-30T07:40:36.303Z,0.51
2023-11-30T07:43:05.088Z,0.55
2023-11-30T07:45:31.662Z,0.62
2023-11-30T07:47:58.678Z,0.69
2023-11-30T07:50:28.606Z,0.67
2023-11-30T07:52:55.085Z,0.63
2023-11-30T07:55:21.701Z,0.60
2023-11-30T07:57:51.642Z,0.59
2023-11-30T08:00:19.027Z,0.55
2023-11-30T08:02:45.512Z,0.52
2023-11-30T08:05:14.540Z,0.51
2023-11-30T08:07:45.759Z,0.47
2023-11-30T08:10:12.165Z,0.42
2023-11-30T08:12:40.877Z,0.38
2023-11-30T08:15:12.926Z,0.37
2023-11-30T08:17:39.509Z,0.43
2023-11-30T08:20:14.675Z,0.49
2023-11-30T08:22:43.402Z,0.58
2023-11-30T08:25:17.004Z,0.66
2023-11-30T08:27:48.162Z,0.75
2023-11-30T08:30:16.799Z,0.79
2023-11-30T08:32:45.859Z,0.87
2023-11-30T08:35:12.676Z,0.96
2023-11-30T08:37:39.145Z,1.08
2023-11-30T08:40:08.537Z,1.14
2023-11-30T08:42:36.577Z,1.19
2023-11-30T08:45:06.344Z,1.20
2023-11-30T08:47:32.829Z,1.23
2023-11-30T08:50:05.108Z,1.28
2023-11-30T08:52:31.517Z,1.37
2023-11-30T08:55:00.269Z,1.49
2023-11-30T08:57:26.794Z,1.61
2023-11-30T08:59:53.374Z,1.76
2023-11-30T09:02:20.846Z,1.82
2023-11-30T09:04:47.416Z,1.89
2023-11-30T09:07:13.981Z,2.02
2023-11-30T09:09:46.726Z,2.14
2023-11-30T09:12:15.259Z,2.30
2023-11-30T09:14:41.676Z,2.47
2023-11-30T09:17:08.160Z,2.54
2023-11-30T09:19:34.567Z,2.62
2023-11-30T09:22:00.974Z,2.69
2023-11-30T09:24:29.503Z,2.72
2023-11-30T09:26:56.070Z,2.77
2023-11-30T09:29:24.686Z,2.87
2023-11-30T09:31:51.435Z,2.85
2023-11-30T09:34:20.968Z,2.93
2023-11-30T09:36:50.351Z,3.00
2023-11-30T09:39:20.767Z,3.08
2023-11-30T09:41:47.638Z,3.02
2023-11-30T09:44:16.284Z,3.04
2023-11-30T09:46:43.558Z,3.07
2023-11-30T09:49:11.091Z,3.13
2023-11-30T09:51:46.219Z,3.17
2023-11-30T09:54:15.130Z,3.22
2023-11-30T09:56:41.842Z,3.26
2023-11-30T09:59:08.294Z,3.29
2023-11-30T10:01:40.870Z,3.29
2023-11-30T10:04:18.185Z,3.30
2023-11-30T10:06:48.192Z,3.33
2023-11-30T10:09:15.138Z,3.33
2023-11-30T10:11:42.012Z,3.34
2023-11-30T10:14:09.301Z,3.39
2023-11-30T10:16:36.650Z,3.49
2023-11-30T10:19:08.230Z,3.53
2023-11-30T10:21:41.979Z,3.59
2023-11-30T10:24:09.324Z,3.60
2023-11-30T10:26:37.695Z,3.58
2023-11-30T10:29:07.326Z,3.61
2023-11-30T10:31:36.497Z,3.58
2023-11-30T10:34:17.761Z,3.58
2023-11-30T10:36:44.510Z,3.58
2023-11-30T10:39:19.590Z,3.62
2023-11-30T10:41:59.131Z,3.72
2023-11-30T10:44:27.398Z,3.85
2023-11-30T10:46:55.917Z,3.97
2023-11-30T10:49:26.019Z,4.09
2023-11-30T10:51:56.134Z,4.20
2023-11-30T10:54:41.072Z,4.36
2023-11-30T10:57:08.044Z,4.40
2023-11-30T10:59:34.816Z,4.48
2023-11-30T11:02:02.882Z,4.54
2023-11-30T11:04:30.100Z,4.58
2023-11-30T11:07:08.456Z,4.64
2023-11-30T11:10:07.310Z,4.61
2023-11-30T11:12:39.075Z,4.67
2023-11-30T11:15:12.803Z,4.69
2023-11-30T11:17:47.800Z,4.71
2023-11-30T11:20:26.493Z,4.69
2023-11-30T11:22:57.916Z,4.61
2023-11-30T11:25:26.262Z,4.48
2023-11-30T11:27:52.748Z,4.49
2023-11-30T11:30:19.286Z,4.54
2023-11-30T11:32:46.227Z,4.60
2023-11-30T11:35:12.838Z,4.57
2023-11-30T11:37:39.434Z,4.59
2023-11-30T11:40:09.082Z,4.63
2023-11-30T11:42:35.897Z,4.72
2023-11-30T11:45:05.517Z,4.72
2023-11-30T11:47:32.147Z,4.69
2023-11-30T11:50:04.347Z,4.73
2023-11-30T11:52:31.768Z,4.85
2023-11-30T11:55:08.197Z,4.90
2023-11-30T11:57:37.094Z,4.97
2023-11-30T12:00:11.844Z,4.92
2023-11-30T12:02:38.373Z,4.92
2023-11-30T12:05:09.984Z,4.95
2023-11-30T12:07:46.678Z,5.03
2023-11-30T12:10:23.905Z,5.08
2023-11-30T12:12:51.931Z,5.07
2023-11-30T12:15:18.503Z,5.08
2023-11-30T12:17:49.919Z,5.15
2023-11-30T12:20:19.324Z,4.98
2023-11-30T12:22:46.590Z,5.00
2023-11-30T12:25:13.889Z,4.98
2023-11-30T12:27:43.049Z,4.97
2023-11-30T12:30:10.147Z,4.94
2023-11-30T12:32:42.678Z,4.90
2023-11-30T12:35:09.592Z,4.88
2023-11-30T12:37:37.160Z,4.90
2023-11-30T12:40:04.845Z,4.86
2023-11-30T12:42:34.015Z,4.85
2023-11-30T12:45:01.047Z,4.81
2023-11-30T12:47:27.475Z,4.81
2023-11-30T12:49:54.002Z,4.80
2023-11-30T12:52:21.869Z,4.85
2023-11-30T12:54:54.083Z,4.89
2023-11-30T12:57:21.121Z,4.89
2023-11-30T12:59:47.747Z,4.90
2023-11-30T13:02:14.349Z,4.90
2023-11-30T13:04:43.782Z,4.87
2023-11-30T13:07:11.300Z,4.85
2023-11-30T13:09:37.820Z,4.85
2023-11-30T13:12:05.044Z,4.83
2023-11-30T13:14:32.051Z,4.79
2023-11-30T13:16:58.613Z,4.76
2023-11-30T13:19:25.690Z,4.77
2023-11-30T13:21:52.881Z,4.78
2023-11-30T13:24:19.827Z,4.78
2023-11-30T13:26:48.200Z,4.75
2023-11-30T13:29:16.867Z,4.77
2023-11-30T13:31:44.209Z,4.72
2023-11-30T13:34:10.969Z,4.75
2023-11-30T13:36:37.429Z,4.75
2023-11-30T13:39:07.134Z,4.76
2023-11-30T13:41:33.645Z,4.72
2023-11-30T13:44:00.048Z,4.69
2023-11-30T13:46:26.746Z,4.65
2023-11-30T13:48:53.620Z,4.67
2023-11-30T13:51:22.824Z,4.67
2023-11-30T13:53:51.542Z,4.60
2023-11-30T13:56:22.615Z,4.56
2023-11-30T13:58:49.399Z,4.60
2023-11-30T14:01:20.199Z,4.57
2023-11-30T14:03:47.156Z,4.62
2023-11-30T14:06:13.890Z,4.64
2023-11-30T14:08:41.311Z,4.58
2023-11-30T14:11:12.958Z,4.56
2023-11-30T14:13:39.763Z,4.52
2023-11-30T14:16:07.026Z,4.49
2023-11-30T14:18:33.487Z,4.43
2023-11-30T14:21:00.602Z,4.37
2023-11-30T14:23:29.160Z,4.32
2023-11-30T14:25:57.569Z,4.29
2023-11-30T14:28:25.992Z,4.26
2023-11-30T14:30:55.152Z,4.19
2023-11-30T14:33:21.952Z,4.12
2023-11-30T14:35:48.375Z,4.06
2023-11-30T14:38:14.770Z,4.02
2023-11-30T14:40:41.348Z,4.00
2023-11-30T14:43:07.879Z,3.90
2023-11-30T14:45:34.438Z,3.83
2023-11-30T14:48:07.142Z,3.81
2023-11-30T14:50:33.916Z,3.78
2023-11-30T14:53:00.409Z,3.74
2023-11-30T14:55:26.946Z,3.73
2023-11-30T14:57:55.803Z,3.71
2023-11-30T15:00:26.068Z,3.68
2023-11-30T15:02:52.754Z,3.64
2023-11-30T15:05:19.510Z,3.61
2023-11-30T15:07:48.554Z,3.54
2023-11-30T15:10:18.282Z,3.48
2023-11-30T15:12:47.148Z,3.44
2023-11-30T15:15:15.835Z,3.38
2023-11-30T15:17:44.779Z,3.33
2023-11-30T15:20:14.722Z,3.27
2023-11-30T15:22:41.538Z,3.24
2023-11-30T15:25:09.012Z,3.21
2023-11-30T15:27:37.884Z,3.17
2023-11-30T15:30:05.300Z,3.11
2023-11-30T15:32:31.815Z,3.00
2023-11-30T15:34:58.310Z,2.93
2023-11-30T15:37:24.829Z,2.86
2023-11-30T15:39:51.460Z,2.78
2023-11-30T15:42:20.023Z,2.72
2023-11-30T15:44:47.268Z,2.66
2023-11-30T15:47:14.387Z,2.63
2023-11-30T15:49:41.180Z,2.53
2023-11-30T15:52:07.629Z,2.46
2023-11-30T15:54:34.203Z,2.43
2023-11-30T15:57:00.728Z,2.42
2023-11-30T15:59:28.069Z,2.37
2023-11-30T16:01:59.680Z,2.34
2023-11-30T16:04:26.385Z,2.36
2023-11-30T16:06:52.934Z,2.32
2023-11-30T16:09:19.490Z,2.26
2023-11-30T16:11:49.076Z,2.24
2023-11-30T16:14:16.894Z,2.19
2023-11-30T16:16:45.558Z,2.14
2023-11-30T16:19:12.198Z,2.09
2023-11-30T16:21:38.902Z,2.06
2023-11-30T16:24:05.810Z,2.02
2023-11-30T16:26:35.055Z,1.98
2023-11-30T16:29:01.708Z,1.93
2023-11-30T16:31:28.370Z,1.92
2023-11-30T16:33:55.354Z,1.89
2023-11-30T16:36:22.038Z,1.84
2023-11-30T16:38:48.506Z,1.82
2023-11-30T16:41:15.103Z,1.77
2023-11-30T16:43:41.603Z,1.74
2023-11-30T16:46:08.700Z,1.70
2023-11-30T16:48:35.934Z,1.68
2023-11-30T16:51:08.473Z,1.69
2023-11-30T16:53:34.941Z,1.67
2023-11-30T16:56:04.900Z,1.66
2023-11-30T16:58:32.114Z,1.61
2023-11-30T17:00:58.730Z,1.60
2023-11-30T17:03:26.726Z,1.55
2023-11-30T17:05:53.601Z,1.52
2023-11-30T17:08:20.068Z,1.50
2023-11-30T17:10:46.749Z,1.46
2023-11-30T17:13:13.638Z,1.41
2023-11-30T17:15:40.176Z,1.36
2023-11-30T17:18:06.715Z,1.33
2023-11-30T17:20:33.279Z,1.29
2023-11-30T17:23:03.975Z,1.26
2023-11-30T17:25:30.508Z,1.23
2023-11-30T17:27:59.527Z,1.22
2023-11-30T17:30:26.097Z,1.17
2023-11-30T17:32:52.784Z,1.15
2023-11-30T17:35:23.988Z,1.14
2023-11-30T17:37:50.634Z,1.13
2023-11-30T17:40:17.209Z,1.11
2023-11-30T17:42:43.658Z,1.10
2023-11-30T17:45:10.762Z,1.08
2023-11-30T17:47:37.645Z,1.04
2023-11-30T17:50:04.791Z,1.03
2023-11-30T17:52:31.732Z,1.03
2023-11-30T17:54:58.192Z,1.04
2023-11-30T17:57:24.812Z,1.08
2023-11-30T17:59:51.472Z,1.10
2023-11-30T18:02:17.947Z,1.12
2023-11-30T18:04:44.449Z,1.12
2023-11-30T18:07:15.967Z,1.14
2023-11-30T18:09:42.523Z,1.22
2023-11-30T18:12:09.320Z,1.24
2023-11-30T18:14:35.857Z,1.25
2023-11-30T18:17:03.363Z,1.31
2023-11-30T18:19:30.666Z,1.31
2023-11-30T18:21:57.230Z,1.33
2023-11-30T18:24:30.021Z,1.32
2023-11-30T18:26:58.431Z,1.32
2023-11-30T18:29:25.024Z,1.36
2023-11-30T18:31:53.778Z,1.35
2023-11-30T18:34:20.709Z,1.40
2023-11-30T18:36:47.210Z,1.51
2023-11-30T18:39:15.624Z,1.49
2023-11-30T18:41:43.395Z,1.58
2023-11-30T18:44:12.195Z,1.65
2023-11-30T18:46:39.482Z,1.73
2023-11-30T18:49:06.384Z,1.76
2023-11-30T18:51:34.873Z,1.83
2023-11-30T18:54:01.396Z,1.84
2023-11-30T18:56:29.433Z,1.88
2023-11-30T18:58:57.037Z,1.83
2023-11-30T19:01:23.981Z,1.83
2023-11-30T19:03:50.998Z,1.86
2023-11-30T19:06:19.889Z,1.92
2023-11-30T19:08:49.698Z,1.94
2023-11-30T19:11:21.786Z,1.93
2023-11-30T19:13:50.683Z,1.95
2023-11-30T19:16:19.116Z,1.96
2023-11-30T19:18:45.978Z,2.01
2023-11-30T19:21:12.840Z,2.00
2023-11-30T19:23:39.739Z,1.96
2023-11-30T19:26:09.804Z,1.95
2023-11-30T19:28:36.891Z,1.97
2023-11-30T19:31:07.169Z,1.98
2023-11-30T19:33:34.204Z,1.95
2023-11-30T19:36:01.424Z,1.94
2023-11-30T19:38:28.412Z,1.94
2023-11-30T19:40:59.685Z,1.93
2023-11-30T19:43:26.452Z,1.91
2023-11-30T19:45:55.211Z,1.89
2023-11-30T19:48:22.317Z,1.89
2023-11-30T19:50:56.340Z,1.97
2023-11-30T19:53:25.139Z,1.95
2023-11-30T19:55:52.099Z,1.93
2023-11-30T19:58:18.618Z,1.91
2023-11-30T20:00:47.980Z,1.87
2023-11-30T20:03:14.481Z,1.84
2023-11-30T20:05:43.542Z,1.82
2023-11-30T20:08:10.041Z,1.80
2023-11-30T20:10:38.963Z,1.78
2023-11-30T20:13:05.429Z,1.78
2023-11-30T20:15:33.045Z,1.74
2023-11-30T20:17:59.562Z,1.71
2023-11-30T20:20:25.964Z,1.70
2023-11-30T20:22:52.503Z,1.68
2023-11-30T20:25:19.029Z,1.72
2023-11-30T20:27:45.705Z,1.67
2023-11-30T20:30:12.866Z,1.64
2023-11-30T20:32:42.222Z,1.56
2023-11-30T20:35:09.223Z,1.53
2023-11-30T20:37:35.716Z,1.54
2023-11-30T20:40:02.330Z,1.56
2023-11-30T20:42:28.778Z,1.54
2023-11-30T20:44:55.413Z,1.50
2023-11-30T20:47:21.958Z,1.45
2023-11-30T20:49:48.487Z,1.38
2023-11-30T20:52:17.948Z,1.33
2023-11-30T20:54:44.434Z,1.28
2023-11-30T20:57:16.089Z,1.32
2023-11-30T20:59:42.989Z,1.29
2023-11-30T21:02:09.698Z,1.22
2023-11-30T21:04:38.828Z,1.24
2023-11-30T21:07:07.366Z,1.26
2023-11-30T21:09:37.496Z,1.26
2023-11-30T21:12:04.209Z,1.19
2023-11-30T21:14:30.624Z,1.15
2023-11-30T21:16:59.256Z,1.12
2023-11-30T21:19:26.782Z,1.07
2023-11-30T21:21:53.408Z,1.07
2023-11-30T21:24:20.293Z,1.02
2023-11-30T21:26:46.675Z,0.93
2023-11-30T21:29:13.241Z,0.90
2023-11-30T21:31:39.706Z,0.85
2023-11-30T21:34:06.409Z,0.80
2023-11-30T21:36:33.011Z,0.76
2023-11-30T21:38:59.534Z,0.77
2023-11-30T21:41:26.267Z,0.71
2023-11-30T21:43:52.763Z,0.74
2023-11-30T21:46:19.193Z,0.67
2023-11-30T21:48:45.692Z,0.66
2023-11-30T21:51:12.224Z,0.63
2023-11-30T21:53:38.658Z,0.61
2023-11-30T21:56:05.646Z,0.57
2023-11-30T21:58:33.524Z,0.56
2023-11-30T22:01:00.060Z,0.50
2023-11-30T22:03:26.780Z,0.51
2023-11-30T22:05:54.095Z,0.46
2023-11-30T22:08:20.500Z,0.44
2023-11-30T22:10:47.107Z,0.47
2023-11-30T22:13:13.700Z,0.45
2023-11-30T22:15:40.202Z,0.43
2023-11-30T22:18:06.652Z,0.41
2023-11-30T22:20:35.640Z,0.43
2023-11-30T22:23:02.270Z,0.43
2023-11-30T22:25:28.769Z,0.40
2023-11-30T22:27:57.808Z,0.45
2023-11-30T22:30:24.834Z,0.44
2023-11-30T22:32:52.769Z,0.46
2023-11-30T22:35:21.572Z,0.45
2023-11-30T22:37:48.448Z,0.47
2023-11-30T22:40:17.323Z,0.48
2023-11-30T22:42:43.761Z,0.47
2023-11-30T22:45:10.474Z,0.49
2023-11-30T22:47:37.023Z,0.50
2023-11-30T22:50:06.798Z,0.46
2023-11-30T22:52:33.393Z,0.43
2023-11-30T22:54:59.956Z,0.45
2023-11-30T22:57:26.489Z,0.46
2023-11-30T22:59:53.045Z,0.49
2023-11-30T23:02:21.117Z,0.48
2023-11-30T23:04:47.995Z,0.44
2023-11-30T23:07:14.636Z,0.40
2023-11-30T23:09:41.094Z,0.41
2023-11-30T23:12:07.958Z,0.45
2023-11-30T23:14:34.431Z,0.49
2023-11-30T23:17:03.280Z,0.49
2023-11-30T23:19:32.645Z,0.56
2023-11-30T23:21:59.189Z,0.54
2023-11-30T23:24:31.497Z,0.56
2023-11-30T23:26:58.623Z,0.51
2023-11-30T23:29:25.013Z,0.56
2023-11-30T23:31:51.488Z,0.63
2023-11-30T23:34:18.167Z,0.62
2023-11-30T23:36:44.709Z,0.61
2023-11-30T23:39:13.391Z,0.63
2023-11-30T23:41:39.875Z,0.63
2023-11-30T23:44:11.176Z,0.63
2023-11-30T23:46:37.699Z,0.59
2023-11-30T23:49:04.182Z,0.61
2023-11-30T23:51:30.696Z,0.59
2023-11-30T23:53:57.405Z,0.64
2023-11-30T23:56:23.862Z,0.68
2023-11-30T23:58:50.355Z,0.70
